createdAt,value
2022-10-22T00:02:21.401Z,42.20
2022-10-22T00:04:49.278Z,42.20
2022-10-22T00:07:17.653Z,42.20
2022-10-22T00:09:44.103Z,42.20
2022-10-22T00:12:10.622Z,42.20
2022-10-22T00:14:37.741Z,42.30
2022-10-22T00:17:05.869Z,42.20
2022-10-22T00:19:37.032Z,42.90
2022-10-22T00:22:05.152Z,42.30
2022-10-22T00:24:33.169Z,42.30
2022-10-22T00:26:59.751Z,42.30
2022-10-22T00:29:25.905Z,42.30
2022-10-22T00:31:52.339Z,42.20
2022-10-22T00:34:20.887Z,42.20
2022-10-22T00:36:48.524Z,42.30
2022-10-22T00:39:17.218Z,42.30
2022-10-22T00:41:45.268Z,42.30
2022-10-22T00:44:48.688Z,42.20
2022-10-22T00:47:17.270Z,42.20
2022-10-22T00:49:45.489Z,42.20
2022-10-22T00:52:12.997Z,42.30
2022-10-22T00:54:40.749Z,42.20
2022-10-22T00:57:07.030Z,42.20
2022-10-22T00:59:33.238Z,42.90
2022-10-22T01:01:59.727Z,42.30
2022-10-22T01:04:25.846Z,42.20
2022-10-22T01:06:52.013Z,42.30
2022-10-22T01:09:31.759Z,42.30
2022-10-22T01:12:20.295Z,42.20
2022-10-22T01:15:10.758Z,42.20
2022-10-22T01:17:58.638Z,42.30
2022-10-22T01:20:33.474Z,42.20
2022-10-22T01:23:17.671Z,42.20
2022-10-22T01:25:51.238Z,42.30
2022-10-22T01:28:42.988Z,42.20
2022-10-22T01:31:13.023Z,42.30
2022-10-22T01:33:40.555Z,42.30
2022-10-22T01:36:08.719Z,42.30
2022-10-22T01:38:35.735Z,42.30
2022-10-22T01:41:02.522Z,42.30
2022-10-22T01:43:28.710Z,42.30
2022-10-22T01:45:59.962Z,42.30
2022-10-22T01:49:05.317Z,42.30
2022-10-22T01:51:50.088Z,42.30
2022-10-22T01:54:37.538Z,42.30
2022-10-22T01:57:29.172Z,42.30
2022-10-22T02:00:01.056Z,42.20
2022-10-22T02:02:43.461Z,42.20
2022-10-22T02:05:40.541Z,42.30
2022-10-22T02:08:10.606Z,42.30
2022-10-22T02:10:42.499Z,42.30
2022-10-22T02:13:15.527Z,42.30
2022-10-22T02:15:45.590Z,42.30
2022-10-22T02:18:12.744Z,42.30
2022-10-22T02:20:41.791Z,42.30
2022-10-22T02:23:10.935Z,42.20
2022-10-22T02:25:41.513Z,42.20
2022-10-22T02:28:24.743Z,42.30
2022-10-22T02:30:59.944Z,42.20
2022-10-22T02:33:30.247Z,42.30
2022-10-22T02:35:58.293Z,42.30
2022-10-22T02:38:26.206Z,42.30
2022-10-22T02:40:52.993Z,42.30
2022-10-22T02:43:19.490Z,42.30
2022-10-22T02:45:46.605Z,42.30
2022-10-22T02:48:12.838Z,42.30
2022-10-22T02:50:39.285Z,42.30
2022-10-22T02:53:05.430Z,42.30
2022-10-22T02:55:31.488Z,42.30
2022-10-22T02:57:57.591Z,42.30
2022-10-22T03:00:24.005Z,42.30
2022-10-22T03:02:50.412Z,42.30
2022-10-22T03:05:17.001Z,42.30
2022-10-22T03:07:43.396Z,42.30
2022-10-22T03:10:09.776Z,42.30
2022-10-22T03:12:35.993Z,42.30
2022-10-22T03:15:02.395Z,42.30
2022-10-22T03:17:28.456Z,42.30
2022-10-22T03:19:54.675Z,42.30
2022-10-22T03:22:25.841Z,42.30
2022-10-22T03:24:55.191Z,42.30
2022-10-22T03:27:22.547Z,42.30
2022-10-22T03:29:50.981Z,42.30
2022-10-22T03:32:17.581Z,42.30
2022-10-22T03:34:43.944Z,42.20
2022-10-22T03:37:10.867Z,42.30
2022-10-22T03:39:37.567Z,42.30
2022-10-22T03:42:06.870Z,42.30
2022-10-22T03:44:35.044Z,42.30
2022-10-22T03:47:02.681Z,42.30
2022-10-22T03:49:29.127Z,42.30
2022-10-22T03:51:55.235Z,42.30
2022-10-22T03:54:21.498Z,42.30
2022-10-22T03:56:47.611Z,42.30
2022-10-22T03:59:14.414Z,42.30
2022-10-22T04:01:40.692Z,42.30
2022-10-22T04:04:07.532Z,42.30
2022-10-22T04:06:33.598Z,42.30
2022-10-22T04:09:00.562Z,42.30
2022-10-22T04:11:27.014Z,42.30
2022-10-22T04:13:53.076Z,42.30
2022-10-22T04:16:20.992Z,42.30
2022-10-22T04:18:48.519Z,42.30
2022-10-22T04:21:16.859Z,42.30
2022-10-22T04:23:48.118Z,42.30
2022-10-22T04:26:15.101Z,42.30
2022-10-22T04:28:41.741Z,42.30
2022-10-22T04:31:13.999Z,42.30
2022-10-22T04:33:40.795Z,42.30
2022-10-22T04:36:17.926Z,42.20
2022-10-22T04:38:46.430Z,42.30
2022-10-22T04:41:15.495Z,42.20
2022-10-22T04:43:42.261Z,42.30
2022-10-22T04:46:09.111Z,42.30
2022-10-22T04:48:36.171Z,42.30
2022-10-22T04:51:02.611Z,42.30
2022-10-22T04:53:28.730Z,42.30
2022-10-22T04:55:54.862Z,42.30
2022-10-22T04:58:21.028Z,42.30
2022-10-22T05:00:47.265Z,42.30
2022-10-22T05:03:13.589Z,42.20
2022-10-22T05:05:39.756Z,42.20
2022-10-22T05:08:05.866Z,42.20
2022-10-22T05:10:32.101Z,42.30
2022-10-22T05:12:58.275Z,42.30
2022-10-22T05:15:24.327Z,42.30
2022-10-22T05:17:50.563Z,42.30
2022-10-22T05:20:16.710Z,42.30
2022-10-22T05:22:42.751Z,42.30
2022-10-22T05:25:09.182Z,42.30
2022-10-22T05:27:35.237Z,42.30
2022-10-22T05:30:01.298Z,42.30
2022-10-22T05:32:27.549Z,42.30
2022-10-22T05:34:53.687Z,42.20
2022-10-22T05:37:20.014Z,42.30
2022-10-22T05:39:46.096Z,42.20
2022-10-22T05:42:12.167Z,42.20
2022-10-22T05:44:40.230Z,42.20
2022-10-22T05:47:06.307Z,42.20
2022-10-22T05:49:32.426Z,42.30
2022-10-22T05:51:58.555Z,42.20
2022-10-22T05:54:24.689Z,42.20
2022-10-22T05:56:50.908Z,42.90
2022-10-22T05:59:17.120Z,42.20
2022-10-22T06:01:43.254Z,42.20
2022-10-22T06:04:12.069Z,42.20
2022-10-22T06:06:44.548Z,42.20
2022-10-22T06:09:31.024Z,42.30
2022-10-22T06:11:58.060Z,42.30
2022-10-22T06:14:25.166Z,42.20
2022-10-22T06:16:52.004Z,42.20
2022-10-22T06:19:20.601Z,42.30
2022-10-22T06:21:47.309Z,42.20
2022-10-22T06:24:13.716Z,42.30
2022-10-22T06:26:40.556Z,42.30
2022-10-22T06:29:07.396Z,42.30
2022-10-22T06:31:37.069Z,42.20
2022-10-22T06:34:09.731Z,42.30
2022-10-22T06:36:36.346Z,42.30
2022-10-22T06:39:03.912Z,42.20
2022-10-22T06:41:30.000Z,42.30
2022-10-22T06:43:56.726Z,42.20
2022-10-22T06:46:24.310Z,42.30
2022-10-22T06:48:52.565Z,42.30
2022-10-22T06:51:20.448Z,42.30
2022-10-22T06:53:47.664Z,42.30
2022-10-22T06:56:18.105Z,42.30
2022-10-22T06:58:47.875Z,42.20
2022-10-22T07:01:16.342Z,42.30
2022-10-22T07:03:42.791Z,42.20
2022-10-22T07:06:12.010Z,42.30
2022-10-22T07:08:39.687Z,42.30
2022-10-22T07:11:09.945Z,42.30
2022-10-22T07:13:36.611Z,42.30
2022-10-22T07:16:04.150Z,42.30
2022-10-22T07:18:32.350Z,42.30
2022-10-22T07:20:59.019Z,42.30
2022-10-22T07:23:26.079Z,42.30
2022-10-22T07:25:52.707Z,42.30
2022-10-22T07:28:19.482Z,42.20
2022-10-22T07:30:45.966Z,42.20
2022-10-22T07:33:12.802Z,42.30
2022-10-22T07:35:40.441Z,42.20
2022-10-22T07:38:08.200Z,42.30
2022-10-22T07:40:35.500Z,42.30
2022-10-22T07:43:02.014Z,42.30
2022-10-22T07:45:28.238Z,42.30
2022-10-22T07:47:54.323Z,42.30
2022-10-22T07:50:20.765Z,42.30
2022-10-22T07:52:47.360Z,42.30
2022-10-22T07:55:14.090Z,42.30
2022-10-22T07:57:40.580Z,42.20
2022-10-22T08:00:08.266Z,42.20
2022-10-22T08:02:34.725Z,42.20
2022-10-22T08:05:00.894Z,42.20
2022-10-22T08:09:57.981Z,42.20
2022-10-22T08:12:24.088Z,42.20
2022-10-22T08:14:50.152Z,42.20
2022-10-22T08:17:16.360Z,42.20
2022-10-22T08:19:42.430Z,42.20
2022-10-22T08:22:09.006Z,42.30
2022-10-22T08:24:35.445Z,42.30
2022-10-22T08:27:01.571Z,42.20
2022-10-22T08:29:27.641Z,42.90
2022-10-22T08:31:53.956Z,42.20
2022-10-22T08:34:20.518Z,42.40
2022-10-22T08:36:46.645Z,42.20
2022-10-22T08:39:13.186Z,42.20
2022-10-22T08:41:51.347Z,42.20
2022-10-22T08:44:34.357Z,42.20
2022-10-22T08:47:10.281Z,42.20
2022-10-22T08:49:41.420Z,42.20
2022-10-22T08:52:14.339Z,42.20
2022-10-22T08:54:58.027Z,42.10
2022-10-22T08:57:32.987Z,42.10
2022-10-22T09:00:10.284Z,42.10
2022-10-22T09:03:21.699Z,42.20
2022-10-22T09:05:59.953Z,42.20
2022-10-22T09:08:26.215Z,42.20
2022-10-22T09:11:06.535Z,42.20
2022-10-22T09:13:33.044Z,42.20
2022-10-22T09:16:11.933Z,42.20
2022-10-22T09:19:02.422Z,42.20
2022-10-22T09:21:53.355Z,42.10
2022-10-22T09:24:37.973Z,42.10
2022-10-22T09:27:16.640Z,42.10
2022-10-22T09:29:44.004Z,42.10
2022-10-22T09:32:10.303Z,42.20
2022-10-22T09:34:36.714Z,42.10
2022-10-22T09:37:08.497Z,42.20
2022-10-22T09:39:39.381Z,42.20
2022-10-22T09:42:09.367Z,42.10
2022-10-22T09:44:36.836Z,42.10
2022-10-22T09:47:37.248Z,42.10
2022-10-22T09:50:20.726Z,42.10
2022-10-22T09:52:58.285Z,42.10
2022-10-22T09:55:25.145Z,42.10
2022-10-22T09:57:57.881Z,42.00
2022-10-22T10:00:25.462Z,42.00
2022-10-22T10:02:56.677Z,42.00
2022-10-22T10:05:32.955Z,42.00
2022-10-22T10:08:07.706Z,42.00
2022-10-22T10:10:53.753Z,42.10
2022-10-22T10:13:28.732Z,42.10
2022-10-22T10:16:06.745Z,42.10
2022-10-22T10:18:38.565Z,42.10
2022-10-22T10:21:30.120Z,42.10
2022-10-22T10:24:15.386Z,42.10
2022-10-22T10:26:48.190Z,42.10
2022-10-22T10:29:50.256Z,42.10
2022-10-22T10:32:31.052Z,42.10
2022-10-22T10:35:03.928Z,42.10
2022-10-22T10:37:41.707Z,42.10
2022-10-22T10:40:27.673Z,42.10
2022-10-22T10:43:09.250Z,42.10
2022-10-22T10:45:44.681Z,42.10
2022-10-22T10:48:22.922Z,42.10
2022-10-22T10:51:13.857Z,42.10
2022-10-22T10:53:59.714Z,42.10
2022-10-22T10:56:40.679Z,42.20
2022-10-22T10:59:33.078Z,42.20
2022-10-22T11:02:29.426Z,42.20
2022-10-22T11:05:23.423Z,42.20
2022-10-22T11:07:59.892Z,42.20
2022-10-22T11:10:43.910Z,42.20
2022-10-22T11:13:42.011Z,42.20
2022-10-22T11:16:22.763Z,42.20
2022-10-22T11:19:22.642Z,42.20
2022-10-22T11:22:13.705Z,42.20
2022-10-22T11:24:46.983Z,42.30
2022-10-22T11:27:24.655Z,42.20
2022-10-22T11:30:00.930Z,42.20
2022-10-22T11:32:27.752Z,42.20
2022-10-22T11:34:59.066Z,42.30
2022-10-22T11:37:32.305Z,42.20
2022-10-22T11:40:19.121Z,42.20
2022-10-22T11:42:58.433Z,42.20
2022-10-22T11:45:24.531Z,42.30
2022-10-22T11:47:56.363Z,42.30
2022-10-22T11:50:41.000Z,42.30
2022-10-22T11:53:13.267Z,42.30
2022-10-22T11:55:55.580Z,42.30
2022-10-22T11:58:27.798Z,42.30
2022-10-22T12:01:20.976Z,42.30
2022-10-22T12:03:57.715Z,42.30
2022-10-22T12:06:26.162Z,42.30
2022-10-22T12:08:52.219Z,42.30
2022-10-22T12:11:39.628Z,42.40
2022-10-22T12:14:31.281Z,42.30
2022-10-22T12:17:09.222Z,42.30
2022-10-22T12:19:59.809Z,42.30
2022-10-22T12:22:37.836Z,42.30
2022-10-22T12:25:20.852Z,42.30
2022-10-22T12:27:54.966Z,42.40
2022-10-22T12:30:27.438Z,42.30
2022-10-22T12:32:56.234Z,42.40
2022-10-22T12:35:26.597Z,42.30
2022-10-22T12:37:56.369Z,42.40
2022-10-22T12:40:25.770Z,42.40
2022-10-22T12:42:54.573Z,42.30
2022-10-22T12:45:21.784Z,42.30
2022-10-22T12:48:11.560Z,42.40
2022-10-22T12:50:42.188Z,42.30
2022-10-22T12:53:31.296Z,42.30
2022-10-22T12:56:05.423Z,42.50
2022-10-22T12:58:40.329Z,42.40
2022-10-22T13:01:07.436Z,42.40
2022-10-22T13:03:38.048Z,42.40
2022-10-22T13:06:19.462Z,42.50
2022-10-22T13:08:59.079Z,42.40
2022-10-22T13:11:38.184Z,42.50
2022-10-22T13:14:17.383Z,42.50
2022-10-22T13:17:01.852Z,42.40
2022-10-22T13:19:53.658Z,42.40
2022-10-22T13:22:35.561Z,42.50
2022-10-22T13:25:18.847Z,42.50
2022-10-22T13:27:46.972Z,42.50
2022-10-22T13:30:28.263Z,42.50
2022-10-22T13:32:58.336Z,42.40
2022-10-22T13:35:28.256Z,42.40
2022-10-22T13:37:54.562Z,42.50
2022-10-22T13:40:21.237Z,42.50
2022-10-22T13:42:47.453Z,42.50
2022-10-22T13:45:14.783Z,42.40
2022-10-22T13:47:44.860Z,42.40
2022-10-22T13:50:14.929Z,42.50
2022-10-22T13:52:47.609Z,42.50
2022-10-22T13:55:34.074Z,42.50
2022-10-22T14:00:50.600Z,42.50
2022-10-22T14:03:20.138Z,42.50
2022-10-22T14:05:47.652Z,42.50
2022-10-22T14:08:16.828Z,42.50
2022-10-22T14:10:43.542Z,42.50
2022-10-22T14:13:14.576Z,42.50
2022-10-22T14:15:41.920Z,42.50
2022-10-22T14:18:14.232Z,42.50
2022-10-22T14:20:42.188Z,42.50
2022-10-22T14:23:14.118Z,42.50
2022-10-22T14:25:41.281Z,42.50
2022-10-22T14:28:10.198Z,42.50
2022-10-22T14:30:36.507Z,42.50
2022-10-22T14:33:12.719Z,42.50
2022-10-22T14:35:39.082Z,42.50
2022-10-22T14:38:05.211Z,42.50
2022-10-22T14:40:31.434Z,42.50
2022-10-22T14:42:58.261Z,42.50
2022-10-22T14:45:26.353Z,42.50
2022-10-22T14:47:56.922Z,42.50
2022-10-22T14:50:24.516Z,42.50
2022-10-22T14:52:51.075Z,42.50
2022-10-22T14:55:18.584Z,42.50
2022-10-22T14:57:44.976Z,42.60
2022-10-22T15:00:16.914Z,42.50
2022-10-22T15:02:43.739Z,42.50
2022-10-22T15:05:10.510Z,42.50
2022-10-22T15:07:37.589Z,42.50
2022-10-22T15:10:04.990Z,42.60
2022-10-22T15:12:31.084Z,42.50
2022-10-22T15:14:57.169Z,42.50
2022-10-22T15:17:23.294Z,42.60
2022-10-22T15:19:49.693Z,42.60
2022-10-22T15:22:17.423Z,42.60
2022-10-22T15:24:44.214Z,42.60
2022-10-22T15:27:13.149Z,42.60
2022-10-22T15:29:40.684Z,42.60
2022-10-22T15:32:09.914Z,42.60
2022-10-22T15:34:37.325Z,42.60
2022-10-22T15:37:06.246Z,42.60
2022-10-22T15:39:32.674Z,42.60
2022-10-22T15:41:59.480Z,42.60
2022-10-22T15:44:30.641Z,42.60
2022-10-22T15:46:57.457Z,42.60
2022-10-22T15:49:25.808Z,42.60
2022-10-22T15:51:52.391Z,42.60
2022-10-22T15:54:21.360Z,42.60
2022-10-22T15:56:47.885Z,42.60
2022-10-22T15:59:15.647Z,42.60
2022-10-22T16:01:42.814Z,42.60
2022-10-22T16:04:09.431Z,42.50
2022-10-22T16:06:41.221Z,42.50
2022-10-22T16:09:10.563Z,42.50
2022-10-22T16:11:37.945Z,42.50
2022-10-22T16:14:04.996Z,42.50
2022-10-22T16:16:34.371Z,42.50
2022-10-22T16:19:00.564Z,42.50
2022-10-22T16:21:27.588Z,42.50
2022-10-22T16:23:53.986Z,42.50
2022-10-22T16:26:20.518Z,42.50
2022-10-22T16:28:47.502Z,42.50
2022-10-22T16:31:16.603Z,42.50
2022-10-22T16:33:47.822Z,42.40
2022-10-22T16:36:18.096Z,42.50
2022-10-22T16:38:44.795Z,42.50
2022-10-22T16:41:19.066Z,42.40
2022-10-22T16:43:47.915Z,42.50
2022-10-22T16:46:15.609Z,42.50
2022-10-22T16:48:49.279Z,42.50
2022-10-22T16:51:18.445Z,42.50
2022-10-22T16:53:45.280Z,42.50
2022-10-22T16:56:13.957Z,42.50
2022-10-22T16:58:45.081Z,42.50
2022-10-22T17:01:11.811Z,42.40
2022-10-22T17:03:38.297Z,42.50
2022-10-22T17:06:05.233Z,42.60
2022-10-22T17:08:34.398Z,42.40
2022-10-22T17:11:12.213Z,42.50
2022-10-22T17:13:40.341Z,42.50
2022-10-22T17:16:08.856Z,42.50
2022-10-22T17:18:36.628Z,42.50
2022-10-22T17:21:04.902Z,42.50
2022-10-22T17:23:31.343Z,42.50
2022-10-22T17:26:08.342Z,42.50
2022-10-22T17:28:35.854Z,42.50
2022-10-22T17:31:07.518Z,42.50
2022-10-22T17:33:35.274Z,42.50
2022-10-22T17:36:02.148Z,42.50
2022-10-22T17:38:28.462Z,42.50
2022-10-22T17:40:56.294Z,42.50
2022-10-22T17:43:22.374Z,42.40
2022-10-22T17:45:48.579Z,42.40
2022-10-22T17:48:14.678Z,42.40
2022-10-22T17:50:48.194Z,42.40
2022-10-22T17:53:16.773Z,42.40
2022-10-22T17:55:42.902Z,42.40
2022-10-22T17:58:09.156Z,42.40
2022-10-22T18:00:35.581Z,42.50
2022-10-22T18:03:01.814Z,42.40
2022-10-22T18:05:28.336Z,42.40
2022-10-22T18:07:55.892Z,42.40
2022-10-22T18:10:22.772Z,42.40
2022-10-22T18:12:49.029Z,42.40
2022-10-22T18:15:17.516Z,42.40
2022-10-22T18:17:46.413Z,42.40
2022-10-22T18:20:12.606Z,42.40
2022-10-22T18:22:40.675Z,42.40
2022-10-22T18:25:07.682Z,42.40
2022-10-22T18:27:33.979Z,42.40
2022-10-22T18:30:00.231Z,42.40
2022-10-22T18:32:26.275Z,42.40
2022-10-22T18:34:52.371Z,42.40
2022-10-22T18:37:18.397Z,42.40
2022-10-22T18:39:44.635Z,42.40
2022-10-22T18:42:10.700Z,42.40
2022-10-22T18:44:36.887Z,42.40
2022-10-22T18:47:03.153Z,42.40
2022-10-22T18:49:29.383Z,43.00
2022-10-22T18:51:55.650Z,42.40
2022-10-22T18:54:23.695Z,42.40
2022-10-22T18:56:51.543Z,42.40
2022-10-22T18:59:20.663Z,42.40
2022-10-22T19:01:46.998Z,42.40
2022-10-22T19:04:13.668Z,42.40
2022-10-22T19:06:45.074Z,42.40
2022-10-22T19:09:15.991Z,42.40
2022-10-22T19:11:44.251Z,42.40
2022-10-22T19:14:10.656Z,42.30
2022-10-22T19:16:37.019Z,42.40
2022-10-22T19:19:05.861Z,42.30
2022-10-22T19:21:32.293Z,42.40
2022-10-22T19:23:59.902Z,42.30
2022-10-22T19:26:29.605Z,42.30
2022-10-22T19:28:57.552Z,42.30
2022-10-22T19:31:25.326Z,42.30
2022-10-22T19:33:54.799Z,42.30
2022-10-22T19:36:23.824Z,42.30
2022-10-22T19:38:50.550Z,42.40
2022-10-22T19:41:19.667Z,42.30
2022-10-22T19:43:48.605Z,42.40
2022-10-22T19:46:14.851Z,42.40
2022-10-22T19:48:41.160Z,42.40
2022-10-22T19:51:09.631Z,42.40
2022-10-22T19:53:38.055Z,42.40
2022-10-22T19:56:06.694Z,42.40
2022-10-22T19:58:33.851Z,42.40
2022-10-22T20:01:26.967Z,42.40
2022-10-22T20:03:53.591Z,42.40
2022-10-22T20:06:21.228Z,42.40
2022-10-22T20:08:47.866Z,42.40
2022-10-22T20:11:20.650Z,42.40
2022-10-22T20:13:51.186Z,42.40
2022-10-22T20:16:22.563Z,42.40
2022-10-22T20:18:49.260Z,42.40
2022-10-22T20:21:18.561Z,42.40
2022-10-22T20:23:45.661Z,42.50
2022-10-22T20:26:12.356Z,42.50
2022-10-22T20:28:38.955Z,42.50
2022-10-22T20:31:10.543Z,42.50
2022-10-22T20:33:36.745Z,42.50
2022-10-22T20:36:09.070Z,42.40
2022-10-22T20:41:10.690Z,42.40
2022-10-22T20:43:36.846Z,42.40
2022-10-22T20:46:03.813Z,42.40
2022-10-22T20:48:30.863Z,42.40
2022-10-22T20:50:58.446Z,42.40
2022-10-22T20:53:24.730Z,42.40
2022-10-22T20:55:53.531Z,42.40
2022-10-22T20:58:23.353Z,42.40
2022-10-22T21:00:53.539Z,42.40
2022-10-22T21:03:19.862Z,42.40
2022-10-22T21:05:46.322Z,42.40
2022-10-22T21:08:16.667Z,42.40
2022-10-22T21:10:45.706Z,42.40
2022-10-22T21:13:12.879Z,42.40
2022-10-22T21:15:39.220Z,42.40
2022-10-22T21:18:05.474Z,42.40
2022-10-22T21:20:31.651Z,42.30
2022-10-22T21:22:57.706Z,42.40
2022-10-22T21:25:23.964Z,42.30
2022-10-22T21:27:50.025Z,42.30
2022-10-22T21:30:16.308Z,42.40
2022-10-22T21:32:42.753Z,42.30
2022-10-22T21:35:09.651Z,42.40
2022-10-22T21:37:36.049Z,42.40
2022-10-22T21:40:04.082Z,42.50
2022-10-22T21:42:30.258Z,42.40
2022-10-22T21:44:56.412Z,42.50
2022-10-22T21:47:22.541Z,42.50
2022-10-22T21:49:48.755Z,42.50
2022-10-22T21:52:14.844Z,42.40
2022-10-22T21:54:40.958Z,42.50
2022-10-22T21:57:07.125Z,42.40
2022-10-22T21:59:35.318Z,42.40
2022-10-22T22:02:04.953Z,42.40
2022-10-22T22:04:32.454Z,42.40
2022-10-22T22:06:58.563Z,42.40
2022-10-22T22:09:24.626Z,42.50
2022-10-22T22:11:50.680Z,42.40
2022-10-22T22:14:16.896Z,42.50
2022-10-22T22:16:43.078Z,42.40
2022-10-22T22:19:10.282Z,42.50
2022-10-22T22:21:41.411Z,42.50
2022-10-22T22:24:10.927Z,42.40
2022-10-22T22:26:37.054Z,42.50
2022-10-22T22:29:03.723Z,42.50
2022-10-22T22:31:34.018Z,42.40
2022-10-22T22:34:02.592Z,42.40
2022-10-22T22:36:34.311Z,42.40
2022-10-22T22:39:00.760Z,42.40
2022-10-22T22:41:26.847Z,42.40
2022-10-22T22:43:53.053Z,42.40
2022-10-22T22:46:19.182Z,42.40
2022-10-22T22:48:48.381Z,42.40
2022-10-22T22:51:15.205Z,42.30
2022-10-22T22:53:41.439Z,42.40
2022-10-22T22:56:20.889Z,42.40
2022-10-22T22:58:47.367Z,42.30
2022-10-22T23:01:18.050Z,42.40
2022-10-22T23:03:46.732Z,42.40
2022-10-22T23:06:14.257Z,42.40
2022-10-22T23:08:41.281Z,42.40
2022-10-22T23:11:10.994Z,42.40
2022-10-22T23:13:39.496Z,42.40
2022-10-22T23:16:13.552Z,42.40
2022-10-22T23:18:40.360Z,42.40
2022-10-22T23:21:11.544Z,42.30
2022-10-22T23:23:37.705Z,42.40
2022-10-22T23:26:03.874Z,42.40
2022-10-22T23:28:30.033Z,42.40
2022-10-22T23:30:56.201Z,42.40
2022-10-22T23:33:22.497Z,42.40
2022-10-22T23:35:48.703Z,42.40
2022-10-22T23:38:14.881Z,42.40
2022-10-22T23:40:40.990Z,42.40
2022-10-22T23:43:07.073Z,42.40
2022-10-22T23:45:34.516Z,42.30
2022-10-22T23:48:00.609Z,42.30
2022-10-22T23:50:26.686Z,42.40
2022-10-22T23:52:52.730Z,42.30
2022-10-22T23:55:19.415Z,42.40
2022-10-22T23:57:45.517Z,42.40
